Time;durP1;ratioP1;P1;durP2;ratioP2;P2;SDS_P1;SDS_P2;PMS_P1;PMS_P2;Temp;Humidity;BMP_temperature;BMP_pressure;BME280_temperature;BME280_humidity;BME280_pressure;Samples;Min_cycle;Max_cycle;Signal;HPM_P1;HPM_P2
2023/01/28 00:01:11;;;;;;;11.85;8.95;;;4.90;1.00;;;;;;5006489;28;20247;-86
2023/01/28 00:03:37;;;;;;;13.27;9.35;;;4.90;56.50;;;;;;4985172;28;20358;-85
2023/01/28 00:06:08;;;;;;;14.37;10.20;;;4.90;97.50;;;;;;4999118;28;20737;-86
2023/01/28 00:08:34;;;;;;;12.55;9.40;;;4.90;78.30;;;;;;4998537;28;20529;-86
2023/01/28 00:11:02;;;;;;;12.33;8.83;;;4.90;99.90;;;;;;4995823;28;20907;-86
2023/01/28 00:13:29;;;;;;;11.80;9.10;;;4.90;99.90;;;;;;5000339;28;20572;-87
2023/01/28 00:15:59;;;;;;;11.50;9.50;;;4.90;99.90;;;;;;4991259;28;20530;-87
2023/01/28 00:18:26;;;;;;;13.60;9.30;;;4.80;99.90;;;;;;4980875;28;20183;-86
2023/01/28 00:20:59;;;;;;;14.45;10.23;;;4.80;99.90;;;;;;5004448;28;20202;-87
2023/01/28 00:23:31;;;;;;;14.43;10.50;;;4.80;99.90;;;;;;4989881;28;20290;-87
2023/01/28 00:26:02;;;;;;;15.45;9.80;;;4.80;99.90;;;;;;4987138;28;20210;-86
2023/01/28 00:28:27;;;;;;;13.88;9.13;;;4.80;99.90;;;;;;4974999;28;20195;-87
2023/01/28 00:30:53;;;;;;;13.40;9.30;;;4.90;99.90;;;;;;4996965;28;20203;-86
2023/01/28 00:33:19;;;;;;;19.37;10.97;;;4.80;99.90;;;;;;5004859;28;20257;-87
2023/01/28 00:35:44;;;;;;;14.93;10.03;;;4.90;99.90;;;;;;5001872;28;20665;-86
2023/01/28 00:38:10;;;;;;;12.53;9.63;;;4.90;99.90;;;;;;4999962;28;20279;-86
2023/01/28 00:40:35;;;;;;;12.43;9.40;;;4.90;99.90;;;;;;4996581;28;20215;-86
2023/01/28 00:43:01;;;;;;;13.60;9.73;;;4.90;99.90;;;;;;4996930;28;20219;-86
2023/01/28 00:45:27;;;;;;;14.40;9.17;;;4.90;99.90;;;;;;4973609;28;20192;-88
2023/01/28 00:47:53;;;;;;;14.50;9.47;;;4.90;99.90;;;;;;5000112;28;20454;-86
2023/01/28 00:50:20;;;;;;;14.40;10.40;;;4.90;99.90;;;;;;4993868;28;20826;-87
2023/01/28 00:52:48;;;;;;;12.00;9.63;;;4.90;99.90;;;;;;4983682;28;20577;-86
2023/01/28 00:55:14;;;;;;;14.85;10.45;;;4.90;99.90;;;;;;4999210;28;20183;-86
2023/01/28 00:57:39;;;;;;;16.00;10.90;;;4.90;99.90;;;;;;5008324;28;20187;-87
2023/01/28 01:00:06;;;;;;;15.23;11.60;;;4.90;99.90;;;;;;4995985;28;20198;-88
2023/01/28 01:02:32;;;;;;;17.02;10.68;;;4.80;99.90;;;;;;4977226;28;20230;-87
2023/01/28 01:04:58;;;;;;;15.50;10.18;;;4.80;99.90;;;;;;4996640;28;20249;-87
2023/01/28 01:07:31;;;;;;;15.50;10.83;;;4.80;99.90;;;;;;4987044;28;20195;-87
2023/01/28 01:10:06;;;;;;;15.02;10.40;;;4.90;1.00;;;;;;4975977;28;20200;-86
2023/01/28 01:12:32;;;;;;;20.98;12.98;;;4.90;99.90;;;;;;4995959;28;20209;-87
2023/01/28 01:14:57;;;;;;;17.73;11.67;;;4.90;99.90;;;;;;4999753;28;20195;-86
2023/01/28 01:17:23;;;;;;;15.70;11.27;;;4.90;99.90;;;;;;4979177;28;20183;-86
2023/01/28 01:19:48;;;;;;;16.93;10.87;;;4.90;99.90;;;;;;4990743;28;20187;-86
2023/01/28 01:22:14;;;;;;;16.83;11.10;;;4.90;99.90;;;;;;4993396;28;20536;-87
2023/01/28 01:24:39;;;;;;;17.70;11.37;;;4.80;99.90;;;;;;5001279;28;20203;-86
2023/01/28 01:27:05;;;;;;;16.87;11.60;;;4.90;99.90;;;;;;5013740;28;20646;-87
2023/01/28 01:29:32;;;;;;;18.23;13.23;;;4.90;99.90;;;;;;5002803;28;20211;-85
2023/01/28 01:31:58;;;;;;;21.48;12.65;;;4.90;99.90;;;;;;5006904;28;20179;-86
2023/01/28 01:34:24;;;;;;;18.05;12.77;;;4.90;99.90;;;;;;4990212;28;20236;-86
2023/01/28 01:36:50;;;;;;;16.80;12.77;;;4.80;99.90;;;;;;4990642;28;20627;-86
2023/01/28 01:39:15;;;;;;;20.93;12.50;;;4.80;90.00;;;;;;4997856;28;20218;-86
2023/01/28 01:41:41;;;;;;;19.30;13.97;;;4.80;99.90;;;;;;5006362;28;20195;-86
2023/01/28 01:44:45;;;;;;;17.45;13.63;;;4.80;99.90;;;;;;4997313;28;20203;-88
2023/01/28 01:47:12;;;;;;;20.17;14.20;;;4.80;99.90;;;;;;4992222;28;20182;-86
2023/01/28 01:49:38;;;;;;;18.58;12.85;;;4.80;99.90;;;;;;5000141;28;20222;-87
2023/01/28 01:52:11;;;;;;;17.10;13.70;;;4.70;99.90;;;;;;4989586;28;20238;-86
2023/01/28 01:54:39;;;;;;;16.98;13.02;;;4.70;99.90;;;;;;4990629;28;20258;-86
2023/01/28 01:57:08;;;;;;;16.88;13.23;;;4.80;99.90;;;;;;4988875;28;20569;-86
2023/01/28 01:59:35;;;;;;;16.45;12.60;;;4.80;99.90;;;;;;4978191;28;20685;-86
2023/01/28 02:02:05;;;;;;;17.35;12.15;;;4.80;39.60;;;;;;5005382;28;20194;-86
2023/01/28 02:04:35;;;;;;;17.60;13.43;;;4.80;1.00;;;;;;4998784;28;20369;-88
2023/01/28 02:07:02;;;;;;;18.48;12.93;;;4.80;1.00;;;;;;4987089;28;20206;-86
2023/01/28 02:09:31;;;;;;;16.25;13.25;;;4.80;1.00;;;;;;4991042;28;20198;-86
2023/01/28 02:12:04;;;;;;;17.52;12.90;;;4.70;1.00;;;;;;4970172;28;20186;-86
2023/01/28 02:14:33;;;;;;;17.77;13.38;;;4.70;1.00;;;;;;4979215;28;20233;-86
2023/01/28 02:17:00;;;;;;;19.35;13.85;;;4.70;1.00;;;;;;4999120;28;20605;-86
2023/01/28 02:19:36;;;;;;;18.63;13.90;;;4.60;1.00;;;;;;4995784;28;20180;-86
2023/01/28 02:22:26;;;;;;;19.90;13.55;;;4.60;1.00;;;;;;4995311;28;20187;-86
2023/01/28 02:25:04;;;;;;;15.93;11.68;;;4.60;1.00;;;;;;5001607;28;20206;-86
2023/01/28 02:27:34;;;;;;;20.80;13.65;;;4.60;1.00;;;;;;4998031;28;20179;-86
2023/01/28 02:30:12;;;;;;;17.15;13.00;;;4.70;1.00;;;;;;4975502;28;20697;-86
2023/01/28 02:32:48;;;;;;;20.33;13.75;;;4.70;1.00;;;;;;4998055;28;20207;-88
2023/01/28 02:35:31;;;;;;;22.05;13.70;;;4.70;1.00;;;;;;5006111;28;20186;-85
2023/01/28 02:38:13;;;;;;;21.58;13.98;;;4.70;1.00;;;;;;4973327;28;20658;-85
2023/01/28 02:41:01;;;;;;;20.67;14.73;;;4.60;1.00;;;;;;4995795;28;20194;-85
2023/01/28 02:43:46;;;;;;;23.63;16.02;;;4.50;1.00;;;;;;4988672;28;20209;-85
2023/01/28 02:49:29;;;;;;;20.60;13.95;;;4.40;1.00;;;;;;5000441;28;20198;-86
2023/01/28 02:53:39;;;;;;;18.65;13.15;;;4.40;1.00;;;;;;4981602;28;20179;-86
2023/01/28 02:55:19;;;;;;;20.75;14.55;;;4.40;1.00;;;;;;5001406;28;20692;-85
2023/01/28 02:57:48;;;;;;;25.33;16.63;;;4.40;1.00;;;;;;5002517;28;20232;-85
2023/01/28 03:00:22;;;;;;;22.77;15.18;;;4.40;1.00;;;;;;4998269;28;20548;-87
2023/01/28 03:03:06;;;;;;;23.60;16.30;;;4.40;1.00;;;;;;4977691;28;20218;-85
2023/01/28 03:05:49;;;;;;;26.52;18.65;;;4.40;1.00;;;;;;5002234;28;20191;-87
2023/01/28 03:38:41;;;;;;;20.42;16.25;;;4.20;99.90;;;;;;4997317;28;20199;-85
2023/01/28 03:41:10;;;;;;;21.75;14.98;;;4.20;99.90;;;;;;4984346;28;20221;-84
2023/01/28 03:43:36;;;;;;;19.73;14.05;;;4.20;99.90;;;;;;4999952;28;20204;-86
2023/01/28 03:46:05;;;;;;;21.47;14.97;;;4.20;99.90;;;;;;5002034;28;20257;-87
2023/01/28 03:48:31;;;;;;;16.65;13.25;;;4.20;77.50;;;;;;4992615;28;20492;-85
2023/01/28 03:50:59;;;;;;;16.43;12.43;;;4.20;1.00;;;;;;4997774;28;20214;-86
2023/01/28 03:53:24;;;;;;;16.33;13.02;;;4.20;1.00;;;;;;5003659;28;20454;-88
2023/01/28 03:55:51;;;;;;;15.60;12.10;;;4.20;1.00;;;;;;5009338;28;20180;-87
2023/01/28 03:58:19;;;;;;;17.95;13.32;;;4.20;1.00;;;;;;4996171;28;20187;-87
2023/01/28 04:00:45;;;;;;;17.33;12.13;;;4.20;1.00;;;;;;5002339;28;20191;-85
2023/01/28 04:03:16;;;;;;;17.17;11.50;;;4.20;1.00;;;;;;4987140;28;20285;-88
2023/01/28 04:06:05;;;;;;;14.00;11.38;;;4.20;1.00;;;;;;4995757;28;21744;-87
2023/01/28 04:08:30;;;;;;;14.57;11.82;;;4.20;1.00;;;;;;4992798;28;20241;-87
2023/01/28 04:10:56;;;;;;;18.07;11.73;;;4.20;1.00;;;;;;4998402;28;20210;-88
2023/01/28 04:13:22;;;;;;;15.00;11.53;;;4.20;1.00;;;;;;4979115;28;20644;-88
2023/01/28 04:15:47;;;;;;;14.57;11.60;;;4.20;1.00;;;;;;5008932;28;20969;-87
2023/01/28 04:18:13;;;;;;;17.03;13.30;;;4.20;1.00;;;;;;5005466;28;20188;-87
2023/01/28 04:20:39;;;;;;;15.10;12.00;;;4.20;1.00;;;;;;4997746;28;20238;-87
2023/01/28 04:23:06;;;;;;;14.43;11.65;;;4.20;1.00;;;;;;4994938;28;20274;-85
2023/01/28 04:25:32;;;;;;;13.25;11.85;;;4.20;1.00;;;;;;4992080;28;20202;-87
2023/01/28 04:27:57;;;;;;;15.97;11.97;;;4.20;1.00;;;;;;4983043;28;20187;-87
2023/01/28 04:30:23;;;;;;;16.67;12.73;;;4.20;1.00;;;;;;4976030;28;20273;-85
2023/01/28 04:32:51;;;;;;;18.60;13.83;;;4.20;99.90;;;;;;4982039;28;20207;-85
2023/01/28 04:35:18;;;;;;;18.92;14.40;;;4.20;99.90;;;;;;5002402;28;20187;-86
2023/01/28 04:37:44;;;;;;;18.65;14.60;;;4.10;99.90;;;;;;4986242;28;20238;-86
2023/01/28 04:40:11;;;;;;;17.87;14.37;;;4.10;99.90;;;;;;4977562;28;20198;-85
2023/01/28 04:42:37;;;;;;;15.30;11.52;;;4.10;99.90;;;;;;4992090;28;20465;-85
2023/01/28 04:45:04;;;;;;;15.73;12.37;;;4.10;99.90;;;;;;4999146;28;20737;-85
2023/01/28 04:47:29;;;;;;;17.52;13.43;;;4.10;99.90;;;;;;4999414;28;20195;-85
2023/01/28 04:49:54;;;;;;;16.03;13.00;;;4.10;99.90;;;;;;4992021;28;20218;-85
2023/01/28 04:52:20;;;;;;;17.33;13.17;;;4.10;99.90;;;;;;4996570;28;20298;-87
2023/01/28 04:54:45;;;;;;;15.33;12.23;;;4.10;99.90;;;;;;4998305;28;20270;-85
2023/01/28 04:57:11;;;;;;;17.10;12.67;;;4.10;99.90;;;;;;4998353;28;20187;-86
2023/01/28 04:59:37;;;;;;;16.40;11.03;;;4.10;99.90;;;;;;5013856;28;20179;-84
2023/01/28 05:02:02;;;;;;;15.87;10.77;;;4.00;64.80;;;;;;4997814;28;20195;-85
2023/01/28 05:04:28;;;;;;;14.50;12.27;;;4.00;91.00;;;;;;4980077;28;20219;-85
2023/01/28 05:06:53;;;;;;;16.67;12.83;;;4.00;99.90;;;;;;5000490;28;20193;-86
2023/01/28 05:09:21;;;;;;;15.53;12.07;;;4.00;99.90;;;;;;5002038;28;20558;-84
2023/01/28 05:11:47;;;;;;;19.05;12.05;;;4.00;96.20;;;;;;5002096;28;20187;-84
2023/01/28 05:14:12;;;;;;;17.40;12.13;;;4.00;36.10;;;;;;4990009;28;20295;-85
2023/01/28 05:16:38;;;;;;;15.80;12.20;;;4.00;72.40;;;;;;4993147;28;20179;-85
2023/01/28 05:19:03;;;;;;;17.43;11.70;;;4.00;77.40;;;;;;5000391;28;20213;-85
2023/01/28 05:21:29;;;;;;;16.90;11.87;;;4.00;86.70;;;;;;4981185;28;20678;-85
2023/01/28 05:23:54;;;;;;;17.93;11.80;;;4.10;60.90;;;;;;4988714;28;20212;-85
2023/01/28 05:26:20;;;;;;;17.20;12.17;;;4.10;71.90;;;;;;4993895;28;20243;-85
2023/01/28 05:28:46;;;;;;;16.33;12.43;;;4.10;41.00;;;;;;4994703;28;20229;-85
2023/01/28 05:31:11;;;;;;;14.77;11.47;;;4.10;25.40;;;;;;4990533;28;20211;-85
2023/01/28 05:33:37;;;;;;;18.40;11.57;;;4.10;1.00;;;;;;5000067;28;20203;-86
2023/01/28 05:36:03;;;;;;;15.80;12.60;;;4.00;1.00;;;;;;5005349;28;20191;-85
2023/01/28 05:38:29;;;;;;;15.02;11.25;;;4.00;1.00;;;;;;4994804;28;20248;-85
2023/01/28 05:40:54;;;;;;;19.90;12.30;;;4.00;1.00;;;;;;4999628;28;20226;-85
2023/01/28 05:43:20;;;;;;;13.97;10.80;;;4.00;1.00;;;;;;5002829;28;20457;-84
2023/01/28 05:45:46;;;;;;;17.80;12.83;;;4.10;1.00;;;;;;5009018;28;20703;-85
2023/01/28 05:48:13;;;;;;;16.95;11.98;;;4.10;1.00;;;;;;4975711;28;20204;-86
2023/01/28 05:50:38;;;;;;;18.38;12.45;;;4.10;1.00;;;;;;4975031;28;20246;-85
2023/01/28 05:53:05;;;;;;;14.90;11.50;;;4.10;1.00;;;;;;5000995;28;20238;-85
2023/01/28 05:55:30;;;;;;;14.52;10.50;;;4.10;1.00;;;;;;5005545;28;20190;-87
2023/01/28 05:57:56;;;;;;;18.30;11.77;;;4.10;1.00;;;;;;5004581;28;20184;-85
2023/01/28 06:00:21;;;;;;;16.00;11.07;;;4.00;1.00;;;;;;4995188;28;20195;-85
2023/01/28 06:02:49;;;;;;;15.23;10.40;;;4.10;1.00;;;;;;4999200;28;20280;-85
2023/01/28 06:05:15;;;;;;;18.80;12.43;;;4.10;1.00;;;;;;4978677;28;20818;-86
2023/01/28 06:07:44;;;;;;;14.77;10.97;;;4.10;99.90;;;;;;4991085;28;20278;-85
2023/01/28 06:10:10;;;;;;;17.00;11.70;;;4.10;99.90;;;;;;4993050;28;20748;-85
2023/01/28 06:12:35;;;;;;;16.30;11.90;;;4.10;99.90;;;;;;4996237;28;20203;-88
2023/01/28 06:15:01;;;;;;;20.27;13.70;;;4.10;99.90;;;;;;5002919;28;20453;-87
2023/01/28 06:17:27;;;;;;;21.90;15.10;;;4.00;99.90;;;;;;4996714;28;20183;-89
2023/01/28 06:19:52;;;;;;;27.10;16.40;;;4.00;99.90;;;;;;5006125;28;20443;-87
2023/01/28 06:22:18;;;;;;;24.63;15.43;;;4.00;99.90;;;;;;4989283;28;20206;-88
2023/01/28 06:24:43;;;;;;;18.90;14.40;;;4.00;99.90;;;;;;4979727;28;20778;-87
2023/01/28 06:27:09;;;;;;;18.50;13.27;;;4.00;99.90;;;;;;5002349;28;20282;-88
2023/01/28 06:29:35;;;;;;;16.83;12.93;;;4.00;99.90;;;;;;5008779;28;20199;-88
2023/01/28 06:32:00;;;;;;;18.23;13.40;;;4.00;99.90;;;;;;4984392;28;20217;-86
2023/01/28 06:34:26;;;;;;;20.47;15.03;;;3.90;99.90;;;;;;4981551;28;20200;-86
2023/01/28 06:36:52;;;;;;;19.77;14.40;;;3.90;99.90;;;;;;5004074;28;20210;-87
2023/01/28 06:39:20;;;;;;;19.43;14.17;;;3.90;99.90;;;;;;4995527;28;20709;-87
2023/01/28 06:41:46;;;;;;;19.77;14.80;;;3.90;99.90;;;;;;5004160;28;21496;-87
2023/01/28 06:44:12;;;;;;;22.52;17.00;;;3.90;99.90;;;;;;5001371;28;20219;-88
2023/01/28 06:46:37;;;;;;;23.40;17.67;;;3.90;99.90;;;;;;5000869;28;20250;-86
2023/01/28 06:49:03;;;;;;;24.37;16.73;;;3.90;99.90;;;;;;5007018;28;20270;-86
2023/01/28 06:51:28;;;;;;;24.67;16.43;;;3.90;99.90;;;;;;4993935;28;20560;-87
2023/01/28 06:53:54;;;;;;;19.93;16.00;;;3.90;99.90;;;;;;5006593;28;20279;-87
2023/01/28 06:56:19;;;;;;;22.00;16.30;;;3.90;99.90;;;;;;4991853;28;20187;-87
2023/01/28 06:58:45;;;;;;;22.53;16.37;;;3.90;99.90;;;;;;4979740;28;20282;-87
2023/01/28 07:01:10;;;;;;;22.97;15.60;;;3.90;99.90;;;;;;4985320;28;20195;-88
2023/01/28 07:03:36;;;;;;;20.20;14.63;;;3.90;99.90;;;;;;5011071;28;20272;-87
2023/01/28 07:06:01;;;;;;;17.67;13.40;;;3.90;99.90;;;;;;4985510;28;20731;-87
2023/01/28 07:08:27;;;;;;;17.17;13.70;;;3.80;99.90;;;;;;4999583;28;20183;-89
2023/01/28 07:10:52;;;;;;;23.83;15.80;;;3.80;99.90;;;;;;4986359;28;20202;-86
2023/01/28 07:13:18;;;;;;;23.33;15.83;;;3.70;98.60;;;;;;4999289;28;20559;-87
2023/01/28 07:15:44;;;;;;;23.87;16.87;;;3.70;93.30;;;;;;4994046;28;20694;-87
2023/01/28 07:18:12;;;;;;;23.30;16.53;;;3.70;99.90;;;;;;4998403;28;20191;-86
2023/01/28 07:20:38;;;;;;;27.35;18.25;;;3.80;99.90;;;;;;5000160;28;20691;-88
2023/01/28 07:23:03;;;;;;;25.80;17.83;;;3.90;99.90;;;;;;4989791;28;20294;-87
2023/01/28 07:25:30;;;;;;;23.77;17.00;;;4.00;92.50;;;;;;5004402;28;20198;-87
2023/01/28 07:27:55;;;;;;;22.63;16.75;;;4.10;69.00;;;;;;5002289;28;20195;-86
2023/01/28 07:30:23;;;;;;;26.97;16.27;;;4.10;48.60;;;;;;4994704;28;20223;-87
2023/01/28 07:32:56;;;;;;;24.20;16.60;;;4.20;35.00;;;;;;4996976;28;20195;-87
2023/01/28 07:35:25;;;;;;;22.92;14.95;;;4.20;7.00;;;;;;4998466;28;20192;-87
2023/01/28 07:37:56;;;;;;;24.50;17.10;;;4.20;1.00;;;;;;5002360;28;20180;-86
2023/01/28 07:40:25;;;;;;;24.55;17.00;;;4.20;1.00;;;;;;4995783;28;20195;-86
2023/01/28 07:42:52;;;;;;;23.02;17.10;;;4.30;1.00;;;;;;5002861;28;20278;-86
2023/01/28 07:45:17;;;;;;;25.05;16.98;;;4.30;1.00;;;;;;4998221;28;20256;-87
2023/01/28 07:47:43;;;;;;;23.00;14.50;;;4.30;1.00;;;;;;4995404;28;20215;-87
2023/01/28 07:50:10;;;;;;;23.87;15.57;;;4.30;1.00;;;;;;5001730;28;20222;-84
2023/01/28 07:52:43;;;;;;;21.17;15.70;;;4.20;1.00;;;;;;4998048;28;20206;-87
2023/01/28 07:55:10;;;;;;;21.48;15.98;;;4.20;1.00;;;;;;4982959;28;20183;-88
2023/01/28 07:57:36;;;;;;;19.20;15.65;;;4.10;1.00;;;;;;5007103;28;20172;-87
2023/01/28 08:00:02;;;;;;;22.00;16.17;;;4.10;1.00;;;;;;4987133;28;20209;-87
2023/01/28 08:02:29;;;;;;;21.63;15.48;;;4.10;1.00;;;;;;4993132;28;20555;-87
2023/01/28 08:04:57;;;;;;;25.27;18.52;;;4.10;1.00;;;;;;4978238;28;20600;-86
2023/01/28 08:07:23;;;;;;;30.27;18.15;;;4.20;1.00;;;;;;5002729;28;20188;-87
2023/01/28 08:09:50;;;;;;;29.27;18.20;;;4.20;1.00;;;;;;5007878;28;20213;-89
2023/01/28 08:12:16;;;;;;;29.52;19.42;;;4.30;1.00;;;;;;4997935;28;20671;-87
2023/01/28 08:14:41;;;;;;;33.57;19.67;;;4.30;1.00;;;;;;4988575;28;20187;-88
2023/01/28 08:17:07;;;;;;;30.43;21.90;;;4.30;1.00;;;;;;5001163;28;20202;-86
2023/01/28 08:19:32;;;;;;;39.07;24.37;;;4.30;1.00;;;;;;4984442;28;20196;-87
2023/01/28 08:21:58;;;;;;;35.43;22.97;;;4.30;1.00;;;;;;4991999;28;20179;-87
2023/01/28 08:24:24;;;;;;;32.33;23.00;;;4.40;1.00;;;;;;4993628;28;20295;-87
2023/01/28 08:26:49;;;;;;;29.60;19.83;;;4.40;1.00;;;;;;4997475;28;20203;-87
2023/01/28 08:29:15;;;;;;;33.83;22.27;;;4.40;1.00;;;;;;5000089;28;20180;-87
2023/01/28 08:31:41;;;;;;;40.73;25.37;;;4.40;1.00;;;;;;4987671;28;20474;-88
2023/01/28 08:34:14;;;;;;;36.03;24.70;;;4.40;1.00;;;;;;4985231;28;20207;-87
2023/01/28 08:36:43;;;;;;;33.30;24.40;;;4.40;1.00;;;;;;4990160;28;20274;-88
2023/01/28 08:39:17;;;;;;;34.67;22.42;;;4.50;1.00;;;;;;4997520;28;20554;-88
2023/01/28 08:41:43;;;;;;;36.95;25.50;;;4.60;1.00;;;;;;5004779;28;20273;-91
2023/01/28 08:44:08;;;;;;;34.83;23.60;;;4.60;1.00;;;;;;4974043;28;20623;-88
2023/01/28 08:46:34;;;;;;;34.67;23.27;;;4.60;1.00;;;;;;4975141;28;20206;-88
2023/01/28 08:48:59;;;;;;;35.30;21.90;;;4.70;1.00;;;;;;4974568;28;20203;-88
2023/01/28 08:51:25;;;;;;;35.63;23.77;;;4.70;1.00;;;;;;5000311;28;20244;-87
2023/01/28 08:54:01;;;;;;;32.17;21.83;;;4.80;1.00;;;;;;4985329;28;20206;-86
2023/01/28 08:56:29;;;;;;;32.97;20.67;;;4.80;1.00;;;;;;4978147;28;20191;-88
2023/01/28 08:58:55;;;;;;;30.60;18.02;;;4.90;1.00;;;;;;4975377;28;20174;-85
2023/01/28 09:05:58;;;;;;;29.60;20.98;;;5.00;1.00;;;;;;4975968;28;20203;-85
2023/01/28 09:08:48;;;;;;;29.30;18.48;;;4.90;1.00;;;;;;4987429;28;20206;-86
2023/01/28 09:11:24;;;;;;;25.67;17.58;;;5.00;1.00;;;;;;4987663;28;20207;-86
2023/01/28 09:13:57;;;;;;;29.02;19.40;;;5.00;1.00;;;;;;4977464;28;20211;-86
2023/01/28 09:16:35;;;;;;;25.42;17.90;;;5.00;1.00;;;;;;4983683;28;20258;-88
2023/01/28 09:19:06;;;;;;;27.15;16.70;;;5.00;1.00;;;;;;4997347;28;20183;-85
2023/01/28 09:21:31;;;;;;;26.15;17.80;;;5.10;1.00;;;;;;4979073;28;20191;-85
2023/01/28 09:23:57;;;;;;;30.57;17.60;;;5.10;1.00;;;;;;5003660;28;20294;-87
2023/01/28 09:26:23;;;;;;;26.70;17.80;;;5.10;1.00;;;;;;4998347;28;20196;-85
2023/01/28 09:28:51;;;;;;;31.93;18.87;;;5.20;1.00;;;;;;4985829;28;20190;-86
2023/01/28 09:31:19;;;;;;;27.88;17.77;;;5.20;1.00;;;;;;4974936;28;20219;-86
2023/01/28 09:33:46;;;;;;;27.48;18.42;;;5.20;1.00;;;;;;4998672;28;20269;-86
2023/01/28 09:36:17;;;;;;;26.98;19.67;;;5.30;1.00;;;;;;4996140;28;20183;-86
2023/01/28 09:38:43;;;;;;;29.10;19.50;;;5.30;1.00;;;;;;4983205;28;20683;-85
2023/01/28 09:41:31;;;;;;;28.47;19.17;;;5.30;1.00;;;;;;4981791;28;20290;-84
2023/01/28 09:44:18;;;;;;;28.92;18.27;;;5.40;99.90;;;;;;4977877;28;20215;-85
2023/01/28 09:46:44;;;;;;;28.98;17.58;;;5.40;99.90;;;;;;4975976;28;20570;-88
2023/01/28 09:49:50;;;;;;;23.45;16.00;;;5.40;99.90;;;;;;4975982;28;20598;-86
2023/01/28 09:52:20;;;;;;;24.33;16.95;;;5.40;99.90;;;;;;4911582;29;20237;-86
2023/01/28 09:54:49;;;;;;;29.45;18.10;;;5.40;99.90;;;;;;4900715;29;20194;-84
2023/01/28 09:58:03;;;;;;;27.88;17.65;;;5.50;99.90;;;;;;4963106;28;20194;-86
2023/01/28 10:01:01;;;;;;;28.27;17.02;;;5.50;99.90;;;;;;4984411;28;20195;-85
2023/01/28 10:04:04;;;;;;;29.30;16.98;;;5.50;99.90;;;;;;4976000;28;20215;-86
2023/01/28 10:07:20;;;;;;;26.42;16.13;;;5.60;99.90;;;;;;4976711;28;20195;-85
2023/01/28 10:10:10;;;;;;;28.95;18.13;;;5.60;99.90;;;;;;4977007;28;20196;-86
2023/01/28 10:13:28;;;;;;;29.48;18.50;;;5.80;99.90;;;;;;4992112;28;20666;-88
2023/01/28 10:16:06;;;;;;;29.35;18.73;;;6.00;99.90;;;;;;4956514;28;20190;-87
2023/01/28 10:22:29;;;;;;;28.67;17.67;;;6.50;99.90;;;;;;4969704;28;20268;-87
2023/01/28 10:25:43;;;;;;;25.30;16.77;;;6.60;99.90;;;;;;4958505;28;20200;-86
2023/01/28 10:28:32;;;;;;;27.30;16.67;;;6.50;99.90;;;;;;4952854;28;20199;-87
2023/01/28 10:31:19;;;;;;;30.13;19.30;;;6.40;99.90;;;;;;4980888;28;20230;-87
2023/01/28 10:33:44;;;;;;;30.45;18.33;;;6.40;99.90;;;;;;4984786;28;20600;-87
2023/01/28 10:36:10;;;;;;;28.83;16.93;;;6.40;99.90;;;;;;4985240;28;20194;-87
2023/01/28 10:38:36;;;;;;;29.97;18.43;;;6.40;99.90;;;;;;5003916;28;20245;-88
2023/01/28 10:41:03;;;;;;;26.20;17.57;;;6.50;99.90;;;;;;4979218;28;20195;-87
2023/01/28 10:43:32;;;;;;;30.42;19.48;;;6.50;99.90;;;;;;4991881;28;20576;-87
2023/01/28 10:46:58;;;;;;;;;;;;;;;;;;;;;
2023/01/28 10:53:11;;;;;;;26.55;18.73;;;6.40;99.90;;;;;;4929322;28;20218;-87
2023/01/28 10:55:54;;;;;;;30.90;18.20;;;6.60;99.90;;;;;;4968634;28;20184;-87
2023/01/28 10:58:27;;;;;;;26.00;18.33;;;6.60;99.90;;;;;;4999654;28;20187;-87
2023/01/28 11:00:59;;;;;;;26.83;17.55;;;6.70;99.90;;;;;;4995069;28;20175;-87
2023/01/28 11:03:29;;;;;;;28.40;18.33;;;6.80;99.90;;;;;;4994481;28;20579;-87
2023/01/28 11:05:56;;;;;;;27.60;18.00;;;6.80;99.90;;;;;;4972323;28;20214;-87
2023/01/28 11:08:24;;;;;;;26.65;17.88;;;6.80;99.90;;;;;;4993792;28;20179;-87
2023/01/28 11:10:51;;;;;;;28.00;19.02;;;6.80;99.90;;;;;;4996698;28;20235;-87
2023/01/28 11:13:24;;;;;;;27.70;18.42;;;6.80;99.90;;;;;;4999493;28;20257;-87
2023/01/28 11:15:53;;;;;;;28.75;17.85;;;6.80;99.90;;;;;;4978920;28;20168;-88
2023/01/28 11:18:29;;;;;;;27.00;16.77;;;6.90;99.90;;;;;;4998036;28;20273;-87
2023/01/28 11:21:00;;;;;;;25.20;17.00;;;6.90;99.90;;;;;;4983205;28;20238;-85
2023/01/28 11:23:43;;;;;;;;;;;;;;;;;;;;;
2023/01/28 11:26:20;;;;;;;28.02;18.48;;;6.90;99.90;;;;;;4997404;28;20206;-86
2023/01/28 11:28:46;;;;;;;25.57;17.30;;;6.80;99.90;;;;;;4996002;28;20191;-86
2023/01/28 11:31:15;;;;;;;24.30;16.13;;;6.80;99.90;;;;;;5002763;28;20837;-87
2023/01/28 11:33:52;;;;;;;28.30;19.02;;;6.70;99.90;;;;;;4976099;28;21011;-86
2023/01/28 11:36:24;;;;;;;24.75;15.93;;;6.70;99.90;;;;;;4974569;28;20654;-86
2023/01/28 11:39:00;;;;;;;32.83;16.63;;;6.60;99.90;;;;;;5005809;28;20187;-87
2023/01/28 11:41:30;;;;;;;26.45;15.88;;;6.60;99.90;;;;;;5006942;28;20214;-88
2023/01/28 11:43:57;;;;;;;25.77;16.15;;;6.50;99.90;;;;;;4991164;28;20214;-86
2023/01/28 11:46:26;;;;;;;27.13;16.85;;;6.40;99.90;;;;;;4993467;28;20188;-86
2023/01/28 11:49:10;;;;;;;25.85;17.42;;;6.30;99.90;;;;;;5004795;28;20178;-87
2023/01/28 11:51:44;;;;;;;26.65;17.83;;;6.30;99.90;;;;;;5011204;28;20247;-86
2023/01/28 11:54:35;;;;;;;25.42;17.38;;;6.30;99.90;;;;;;4996877;28;20211;-86
2023/01/28 11:57:19;;;;;;;28.20;17.23;;;6.40;99.90;;;;;;4999157;28;20194;-85
2023/01/28 12:00:14;;;;;;;26.98;17.40;;;6.40;99.90;;;;;;4974631;28;20969;-86
2023/01/28 12:03:12;;;;;;;25.20;14.48;;;6.40;99.90;;;;;;4974643;28;20211;-86
2023/01/28 12:06:05;;;;;;;23.75;15.50;;;6.40;99.90;;;;;;5006610;28;20210;-86
2023/01/28 12:08:54;;;;;;;24.08;15.90;;;6.40;99.90;;;;;;5014363;28;20192;-85
2023/01/28 12:14:47;;;;;;;26.38;17.48;;;6.30;99.90;;;;;;4999024;28;20217;-87
2023/01/28 12:17:34;;;;;;;26.05;15.75;;;6.20;99.90;;;;;;5009264;28;20206;-88
2023/01/28 12:20:17;;;;;;;32.97;16.95;;;6.10;99.90;;;;;;4994078;28;20186;-87
2023/01/28 12:23:24;;;;;;;24.92;16.80;;;6.00;99.90;;;;;;5008687;28;20215;-87
2023/01/28 12:26:15;;;;;;;26.83;17.23;;;6.00;99.90;;;;;;5004207;28;20236;-87
2023/01/28 12:29:04;;;;;;;22.52;14.50;;;5.90;99.90;;;;;;5000075;28;20682;-86
2023/01/28 12:31:40;;;;;;;19.95;14.23;;;5.80;99.90;;;;;;4992990;28;20269;-88
2023/01/28 12:34:21;;;;;;;21.30;15.10;;;5.80;99.90;;;;;;5002767;28;20218;-87
2023/01/28 12:36:55;;;;;;;20.50;14.30;;;5.90;99.90;;;;;;4977676;28;20215;-87
2023/01/28 12:39:56;;;;;;;26.25;15.27;;;5.90;99.90;;;;;;4992781;28;20203;-88
2023/01/28 12:42:41;;;;;;;21.67;13.93;;;6.00;99.90;;;;;;5000682;28;20266;-88
2023/01/28 12:45:36;;;;;;;21.25;14.20;;;6.00;99.90;;;;;;4973528;28;20267;-87
2023/01/28 12:48:23;;;;;;;23.45;15.48;;;6.00;99.90;;;;;;4973821;28;20556;-87
2023/01/28 12:51:06;;;;;;;19.55;14.10;;;5.90;99.90;;;;;;4989503;28;20207;-87
2023/01/28 12:53:50;;;;;;;21.98;15.77;;;5.90;99.90;;;;;;4995559;28;20199;-87
2023/01/28 12:56:21;;;;;;;25.17;16.05;;;6.00;99.90;;;;;;4992325;28;20255;-87
2023/01/28 12:59:12;;;;;;;22.67;14.90;;;6.10;99.90;;;;;;4975055;28;20584;-87
2023/01/28 13:01:41;;;;;;;21.10;13.85;;;6.20;99.90;;;;;;4992253;28;20201;-87
2023/01/28 13:04:28;;;;;;;23.67;15.70;;;6.30;99.90;;;;;;4992479;28;20241;-87
2023/01/28 13:07:26;;;;;;;25.90;17.10;;;6.50;99.90;;;;;;4974209;28;20191;-87
2023/01/28 13:10:01;;;;;;;27.13;18.42;;;6.60;99.90;;;;;;4977725;28;20567;-85
2023/01/28 13:12:27;;;;;;;33.20;19.90;;;6.80;99.90;;;;;;4982919;28;20282;-87
2023/01/28 13:14:53;;;;;;;35.83;22.70;;;7.10;99.90;;;;;;4974249;28;20458;-87
2023/01/28 13:17:28;;;;;;;25.70;17.23;;;8.20;99.90;;;;;;4974288;28;20483;-88
2023/01/28 13:19:54;;;;;;;25.17;18.37;;;9.70;99.90;;;;;;4991730;28;20784;-86
2023/01/28 13:22:35;;;;;;;29.90;22.73;;;11.00;99.90;;;;;;4974887;28;20469;-88
2023/01/28 13:25:21;;;;;;;32.67;21.20;;;11.60;99.90;;;;;;4974756;28;20449;-87
2023/01/28 13:27:56;;;;;;;28.27;21.17;;;11.60;99.90;;;;;;4989102;28;20474;-87
2023/01/28 13:30:28;;;;;;;27.83;20.37;;;10.90;99.90;;;;;;4987617;28;20512;-89
2023/01/28 13:33:03;;;;;;;29.17;21.13;;;10.00;99.90;;;;;;4990805;28;20430;-87
2023/01/28 13:35:36;;;;;;;34.27;25.07;;;9.40;99.90;;;;;;4991352;28;20421;-88
2023/01/28 13:38:16;;;;;;;29.37;20.50;;;9.00;99.90;;;;;;4991977;28;20473;-87
2023/01/28 13:40:43;;;;;;;30.43;22.20;;;8.60;99.90;;;;;;4995845;28;20422;-87
2023/01/28 13:43:39;;;;;;;55.13;20.93;;;8.30;99.90;;;;;;4997449;28;20470;-87
2023/01/28 13:46:09;;;;;;;25.47;18.93;;;8.00;99.90;;;;;;4971918;28;20456;-88
2023/01/28 13:48:45;;;;;;;27.67;18.50;;;7.90;99.90;;;;;;4991807;28;20430;-87
2023/01/28 13:51:26;;;;;;;25.60;17.33;;;7.80;99.90;;;;;;4990702;28;20477;-88
2023/01/28 13:54:20;;;;;;;29.80;19.30;;;7.80;99.90;;;;;;4991732;28;20441;-88
2023/01/28 13:56:58;;;;;;;29.50;20.80;;;8.00;99.90;;;;;;4991860;28;20454;-87